createdAt,value
2022-08-19T00:01:52.869Z,56.96
2022-08-19T00:04:22.172Z,57.33
2022-08-19T00:06:49.075Z,58.18
2022-08-19T00:09:17.225Z,57.93
2022-08-19T00:11:44.686Z,58.50
2022-08-19T00:14:12.512Z,58.85
2022-08-19T00:16:39.792Z,57.86
2022-08-19T00:19:06.884Z,57.44
2022-08-19T00:21:33.611Z,56.45
2022-08-19T00:24:01.118Z,56.87
2022-08-19T00:26:28.622Z,56.40
2022-08-19T00:28:55.668Z,55.45
2022-08-19T00:31:22.728Z,55.05
2022-08-19T00:33:51.433Z,53.71
2022-08-19T00:36:18.166Z,52.98
2022-08-19T00:38:44.947Z,52.25
2022-08-19T00:41:14.371Z,52.73
2022-08-19T00:43:42.217Z,51.41
2022-08-19T00:46:08.837Z,51.82
2022-08-19T00:48:37.295Z,51.89
2022-08-19T00:51:05.591Z,50.48
2022-08-19T00:53:32.787Z,50.37
2022-08-19T00:56:00.225Z,50.64
2022-08-19T00:58:29.315Z,49.63
2022-08-19T01:00:55.926Z,49.75
2022-08-19T01:03:22.708Z,50.07
2022-08-19T01:05:51.085Z,48.90
2022-08-19T01:08:18.318Z,48.82
2022-08-19T01:10:47.617Z,48.04
2022-08-19T01:13:22.992Z,47.71
2022-08-19T01:16:08.103Z,47.21
2022-08-19T01:18:39.208Z,47.59
2022-08-19T01:21:13.062Z,47.28
2022-08-19T01:23:45.699Z,47.71
2022-08-19T01:26:18.445Z,47.31
2022-08-19T01:28:47.033Z,47.17
2022-08-19T01:31:26.752Z,46.99
2022-08-19T01:33:55.754Z,47.22
2022-08-19T01:36:34.620Z,46.46
2022-08-19T01:39:02.312Z,46.52
2022-08-19T01:41:29.114Z,46.33
2022-08-19T01:44:13.711Z,46.55
2022-08-19T01:46:44.650Z,46.54
2022-08-19T01:49:12.301Z,46.44
2022-08-19T01:51:40.171Z,46.51
2022-08-19T01:54:07.522Z,46.20
2022-08-19T01:56:34.111Z,46.30
2022-08-19T01:59:06.235Z,46.28
2022-08-19T02:01:37.191Z,46.42
2022-08-19T02:04:03.971Z,46.50
2022-08-19T02:06:30.757Z,46.31
2022-08-19T02:08:57.815Z,46.52
2022-08-19T02:11:27.636Z,46.84
2022-08-19T02:13:54.878Z,46.80
2022-08-19T02:16:21.745Z,46.69
2022-08-19T02:18:49.544Z,46.66
2022-08-19T02:21:17.683Z,46.45
2022-08-19T02:23:44.465Z,46.43
2022-08-19T02:26:13.405Z,46.40
2022-08-19T02:28:40.733Z,46.34
2022-08-19T02:31:16.364Z,46.62
2022-08-19T02:33:42.975Z,46.56
2022-08-19T02:36:10.204Z,46.62
2022-08-19T02:38:38.093Z,46.78
2022-08-19T02:41:06.314Z,46.72
2022-08-19T02:43:36.885Z,46.56
2022-08-19T02:46:15.826Z,46.64
2022-08-19T02:48:42.530Z,46.93
2022-08-19T02:51:09.205Z,46.63
2022-08-19T02:53:36.086Z,46.83
2022-08-19T02:56:03.074Z,46.53
2022-08-19T02:58:29.887Z,46.56
2022-08-19T03:00:57.411Z,46.76
2022-08-19T03:03:24.639Z,46.80
2022-08-19T03:05:56.439Z,47.07
2022-08-19T03:08:25.258Z,47.23
2022-08-19T03:10:53.072Z,46.79
2022-08-19T03:13:19.765Z,47.06
2022-08-19T03:15:47.749Z,47.04
2022-08-19T03:18:14.496Z,46.97
2022-08-19T03:20:45.827Z,46.71
2022-08-19T03:23:13.681Z,47.01
2022-08-19T03:25:59.295Z,46.46
2022-08-19T03:28:35.265Z,46.98
2022-08-19T03:31:43.871Z,47.12
2022-08-19T03:34:02.058Z,46.84
2022-08-19T03:36:30.379Z,46.92
2022-08-19T03:39:00.121Z,46.89
2022-08-19T03:41:44.212Z,47.02
2022-08-19T03:44:16.672Z,46.96
2022-08-19T03:46:45.254Z,46.74
2022-08-19T03:49:14.174Z,46.91
2022-08-19T03:51:41.918Z,47.51
2022-08-19T03:54:11.603Z,46.91
2022-08-19T03:56:39.179Z,46.82
2022-08-19T03:59:07.052Z,46.70
2022-08-19T04:01:35.291Z,47.36
2022-08-19T04:04:03.379Z,47.12
2022-08-19T04:06:33.148Z,47.10
2022-08-19T04:09:00.393Z,47.21
2022-08-19T04:11:43.389Z,46.70
2022-08-19T04:14:15.374Z,47.23
2022-08-19T04:16:42.127Z,47.12
2022-08-19T04:19:09.047Z,46.95
2022-08-19T04:21:35.818Z,46.31
2022-08-19T04:24:03.779Z,46.58
2022-08-19T04:26:34.980Z,46.64
2022-08-19T04:29:12.133Z,46.80
2022-08-19T04:31:39.466Z,46.94
2022-08-19T04:34:07.433Z,46.76
2022-08-19T04:36:35.758Z,46.85
2022-08-19T04:39:06.119Z,46.63
2022-08-19T04:41:52.179Z,47.08
2022-08-19T04:44:19.123Z,46.90
2022-08-19T04:46:51.438Z,47.53
2022-08-19T04:49:23.322Z,47.56
2022-08-19T04:51:50.694Z,46.46
2022-08-19T04:54:37.291Z,46.78
2022-08-19T04:57:07.094Z,46.96
2022-08-19T04:59:34.633Z,47.29
2022-08-19T05:02:01.297Z,47.49
2022-08-19T05:04:33.272Z,47.29
2022-08-19T05:07:00.967Z,47.29
2022-08-19T05:09:28.661Z,47.14
2022-08-19T05:12:15.534Z,47.16
2022-08-19T05:14:42.146Z,46.74
2022-08-19T05:17:26.443Z,46.40
2022-08-19T05:20:12.249Z,46.15
2022-08-19T05:22:38.907Z,45.54
2022-08-19T05:25:13.841Z,46.54
2022-08-19T05:27:41.820Z,44.70
2022-08-19T05:30:09.075Z,44.11
2022-08-19T05:32:35.910Z,42.93
2022-08-19T05:35:02.570Z,42.21
2022-08-19T05:37:29.431Z,41.77
2022-08-19T05:39:56.395Z,39.35
2022-08-19T05:42:24.136Z,39.07
2022-08-19T05:44:51.498Z,37.96
2022-08-19T05:47:19.845Z,37.23
2022-08-19T05:49:46.525Z,37.15
2022-08-19T05:52:14.525Z,36.22
2022-08-19T05:54:50.985Z,34.44
2022-08-19T05:57:25.380Z,33.08
2022-08-19T05:59:58.014Z,32.37
2022-08-19T06:02:26.908Z,30.43
2022-08-19T06:04:53.569Z,30.12
2022-08-19T06:07:20.624Z,30.31
2022-08-19T06:09:59.620Z,30.89
2022-08-19T06:12:32.641Z,30.68
2022-08-19T06:15:01.554Z,31.40
2022-08-19T06:17:32.259Z,32.11
2022-08-19T06:19:59.597Z,31.99
2022-08-19T06:22:26.895Z,31.95
2022-08-19T06:24:54.933Z,31.31
2022-08-19T06:27:21.903Z,32.49
2022-08-19T06:29:48.591Z,32.54
2022-08-19T06:32:15.999Z,31.78
2022-08-19T06:34:43.005Z,31.60
2022-08-19T06:37:09.668Z,31.62
2022-08-19T06:39:39.413Z,31.64
2022-08-19T06:42:10.308Z,30.55
2022-08-19T06:44:42.562Z,29.72
2022-08-19T06:47:14.910Z,30.64
2022-08-19T06:49:50.072Z,30.31
2022-08-19T06:52:17.073Z,30.72
2022-08-19T06:54:56.533Z,31.44
2022-08-19T06:57:26.909Z,32.73
2022-08-19T06:59:53.920Z,32.65
2022-08-19T07:02:21.751Z,32.66
2022-08-19T07:04:48.718Z,33.04
2022-08-19T07:07:21.533Z,33.40
2022-08-19T07:09:58.200Z,33.88
2022-08-19T07:12:29.658Z,34.13
2022-08-19T07:14:57.962Z,34.83
2022-08-19T07:17:24.841Z,32.79
2022-08-19T07:19:51.861Z,34.23
2022-08-19T07:22:21.713Z,34.63
2022-08-19T07:24:51.337Z,36.58
2022-08-19T07:27:22.512Z,36.84
2022-08-19T07:29:56.289Z,36.04
2022-08-19T07:32:26.921Z,35.73
2022-08-19T07:34:53.654Z,36.13
2022-08-19T07:37:20.289Z,37.07
2022-08-19T07:39:47.170Z,36.57
2022-08-19T07:42:14.729Z,36.86
2022-08-19T07:44:41.618Z,38.58
2022-08-19T07:47:08.568Z,37.12
2022-08-19T07:49:55.346Z,37.91
2022-08-19T07:52:21.966Z,37.19
2022-08-19T07:54:48.615Z,35.84
2022-08-19T07:57:15.289Z,34.98
2022-08-19T07:59:41.956Z,36.25
2022-08-19T08:02:09.722Z,37.48
2022-08-19T08:04:54.958Z,35.91
2022-08-19T08:07:40.276Z,35.68
2022-08-19T08:10:20.407Z,35.76
2022-08-19T08:13:08.802Z,35.33
2022-08-19T08:15:36.532Z,36.05
2022-08-19T08:18:07.292Z,36.78
2022-08-19T08:20:34.632Z,36.98
2022-08-19T08:23:21.199Z,36.79
2022-08-19T08:25:49.443Z,37.88
2022-08-19T08:28:17.763Z,36.69
2022-08-19T08:30:46.788Z,35.72
2022-08-19T08:35:46.698Z,37.51
2022-08-19T08:38:13.521Z,36.01
2022-08-19T08:40:43.656Z,35.97
2022-08-19T08:43:24.306Z,35.95
2022-08-19T08:45:56.089Z,36.75
2022-08-19T08:48:28.302Z,36.25
2022-08-19T08:50:54.914Z,36.00
2022-08-19T08:53:26.323Z,36.04
2022-08-19T08:55:57.004Z,35.77
2022-08-19T08:58:32.813Z,36.23
2022-08-19T09:00:59.547Z,35.54
2022-08-19T09:03:28.045Z,36.94
2022-08-19T09:06:11.942Z,36.57
2022-08-19T09:09:11.779Z,36.67
2022-08-19T09:11:44.485Z,35.86
2022-08-19T09:14:52.284Z,35.32
2022-08-19T09:17:27.823Z,37.07
2022-08-19T09:20:05.533Z,35.78
2022-08-19T09:22:32.674Z,37.33
2022-08-19T09:24:59.367Z,37.56
2022-08-19T09:27:42.245Z,37.01
2022-08-19T09:30:13.863Z,37.16
2022-08-19T09:32:42.839Z,36.42
2022-08-19T09:35:10.163Z,35.71
2022-08-19T09:37:36.883Z,35.73
2022-08-19T09:40:04.725Z,34.18
2022-08-19T09:42:35.345Z,34.98
2022-08-19T09:45:03.407Z,35.52
2022-08-19T09:47:33.466Z,34.26
2022-08-19T09:50:00.285Z,34.78
2022-08-19T09:52:32.713Z,34.52
2022-08-19T09:55:00.031Z,33.57
2022-08-19T09:57:26.966Z,34.72
2022-08-19T09:59:54.452Z,34.05
2022-08-19T10:02:22.336Z,33.71
2022-08-19T10:05:07.667Z,33.21
2022-08-19T10:07:36.567Z,33.86
2022-08-19T10:10:07.762Z,34.01
2022-08-19T10:12:35.214Z,33.46
2022-08-19T10:15:02.502Z,35.67
2022-08-19T10:17:31.699Z,35.84
2022-08-19T10:20:00.959Z,35.52
2022-08-19T10:22:27.757Z,34.63
2022-08-19T10:24:54.615Z,34.58
2022-08-19T10:27:21.701Z,34.25
2022-08-19T10:29:49.040Z,33.84
2022-08-19T10:32:15.838Z,33.30
2022-08-19T10:34:48.179Z,33.29
2022-08-19T10:37:16.111Z,33.57
2022-08-19T10:39:56.047Z,33.32
2022-08-19T10:42:22.871Z,34.67
2022-08-19T10:44:49.573Z,36.04
2022-08-19T10:47:25.691Z,34.68
2022-08-19T10:50:14.393Z,34.97
2022-08-19T10:52:49.995Z,36.35
2022-08-19T10:55:36.899Z,35.58
2022-08-19T10:58:03.593Z,33.02
2022-08-19T11:00:32.090Z,32.32
2022-08-19T11:02:58.709Z,33.78
2022-08-19T11:05:25.557Z,33.73
2022-08-19T11:07:52.882Z,32.73
2022-08-19T11:10:21.937Z,32.38
2022-08-19T11:12:49.245Z,33.79
2022-08-19T11:15:16.214Z,32.69
2022-08-19T11:17:44.697Z,32.02
2022-08-19T11:20:13.230Z,33.66
2022-08-19T11:22:41.845Z,34.99
2022-08-19T11:25:09.871Z,32.44
2022-08-19T11:27:47.244Z,32.66
2022-08-19T11:30:14.529Z,33.17
2022-08-19T11:32:45.927Z,33.11
2022-08-19T11:35:16.908Z,32.65
2022-08-19T11:37:43.600Z,32.73
2022-08-19T11:40:10.991Z,32.73
2022-08-19T11:42:56.602Z,33.09
2022-08-19T11:45:27.908Z,31.27
2022-08-19T11:47:54.651Z,32.20
2022-08-19T11:50:21.623Z,31.59
2022-08-19T11:52:48.247Z,31.83
2022-08-19T11:55:15.040Z,32.45
2022-08-19T11:57:44.797Z,33.38
2022-08-19T12:00:13.824Z,32.56
2022-08-19T12:02:40.975Z,32.74
2022-08-19T12:05:11.974Z,33.12
2022-08-19T12:07:39.403Z,34.11
2022-08-19T12:10:06.368Z,33.82
2022-08-19T12:12:33.080Z,34.84
2022-08-19T12:14:59.810Z,35.39
2022-08-19T12:17:27.621Z,33.94
2022-08-19T12:19:54.761Z,35.42
2022-08-19T12:22:23.055Z,34.67
2022-08-19T12:24:51.811Z,34.49
2022-08-19T12:27:23.913Z,35.70
2022-08-19T12:30:07.115Z,33.21
2022-08-19T12:32:34.714Z,32.96
2022-08-19T12:35:02.159Z,32.19
2022-08-19T12:37:28.867Z,32.17
2022-08-19T12:39:55.620Z,33.02
2022-08-19T12:42:23.664Z,32.31
2022-08-19T12:44:50.579Z,32.06
2022-08-19T12:47:19.632Z,32.36
2022-08-19T12:49:55.201Z,32.01
2022-08-19T12:52:24.892Z,31.90
2022-08-19T12:54:53.879Z,32.77
2022-08-19T12:57:22.121Z,32.36
2022-08-19T12:59:54.908Z,31.71
2022-08-19T13:02:22.337Z,30.70
2022-08-19T13:04:48.982Z,31.44
2022-08-19T13:07:15.636Z,31.58
2022-08-19T13:09:43.584Z,31.12
2022-08-19T13:12:14.118Z,31.83
2022-08-19T13:14:42.565Z,31.43
2022-08-19T13:17:09.808Z,31.41
2022-08-19T13:19:37.824Z,32.08
2022-08-19T13:22:04.564Z,31.92
2022-08-19T13:24:43.910Z,32.03
2022-08-19T13:27:13.117Z,31.59
2022-08-19T13:30:00.494Z,31.34
2022-08-19T13:32:45.632Z,31.25
2022-08-19T13:35:16.648Z,32.56
2022-08-19T13:37:43.635Z,32.13
2022-08-19T13:40:24.269Z,33.00
2022-08-19T13:42:52.232Z,32.66
2022-08-19T13:45:23.616Z,32.40
2022-08-19T13:47:53.714Z,31.97
2022-08-19T13:50:26.539Z,32.18
2022-08-19T13:52:54.196Z,32.21
2022-08-19T13:55:24.885Z,32.62
2022-08-19T13:57:56.433Z,32.39
2022-08-19T14:00:24.936Z,33.23
2022-08-19T14:02:52.479Z,32.80
2022-08-19T14:05:19.383Z,31.79
2022-08-19T14:07:46.423Z,32.51
2022-08-19T14:10:13.417Z,31.94
2022-08-19T14:12:40.220Z,32.05
2022-08-19T14:15:07.597Z,33.43
2022-08-19T14:17:35.814Z,33.40
2022-08-19T14:20:10.550Z,32.51
2022-08-19T14:22:38.366Z,32.71
2022-08-19T14:25:06.418Z,32.49
2022-08-19T14:27:36.940Z,32.41
2022-08-19T14:30:08.065Z,32.91
2022-08-19T14:32:35.246Z,32.57
2022-08-19T14:35:02.720Z,32.70
2022-08-19T14:37:29.637Z,33.74
2022-08-19T14:39:56.483Z,34.53
2022-08-19T14:42:23.259Z,34.49
2022-08-19T14:44:50.063Z,34.63
2022-08-19T14:47:17.449Z,34.72
2022-08-19T14:49:48.484Z,34.13
2022-08-19T14:52:15.295Z,34.60
2022-08-19T14:54:41.911Z,34.65
2022-08-19T14:57:08.541Z,34.28
2022-08-19T14:59:36.066Z,34.58
2022-08-19T15:02:20.414Z,34.79
2022-08-19T15:04:58.462Z,35.50
2022-08-19T15:07:28.270Z,35.42
2022-08-19T15:09:55.689Z,36.15
2022-08-19T15:12:23.575Z,36.27
2022-08-19T15:14:55.993Z,36.43
2022-08-19T15:17:45.019Z,36.90
2022-08-19T15:20:22.263Z,38.36
2022-08-19T15:22:49.102Z,40.17
2022-08-19T15:25:16.613Z,41.38
2022-08-19T15:27:44.287Z,42.93
2022-08-19T15:30:11.960Z,44.33
2022-08-19T15:32:38.958Z,45.77
2022-08-19T15:35:06.427Z,47.66
2022-08-19T15:37:37.056Z,48.97
2022-08-19T15:40:05.425Z,50.06
2022-08-19T15:42:32.212Z,51.08
2022-08-19T15:45:01.503Z,52.70
2022-08-19T15:47:35.332Z,53.49
2022-08-19T15:50:10.550Z,53.83
2022-08-19T15:52:40.437Z,55.00
2022-08-19T15:55:34.030Z,54.99
2022-08-19T15:58:27.825Z,55.22
2022-08-19T16:01:14.952Z,55.51
2022-08-19T16:04:00.391Z,55.56
2022-08-19T16:06:27.203Z,55.60
2022-08-19T16:08:58.417Z,55.01
2022-08-19T16:11:29.358Z,55.08
2022-08-19T16:13:58.003Z,55.20
2022-08-19T16:16:34.012Z,55.38
2022-08-19T16:19:02.483Z,54.79
2022-08-19T16:21:33.428Z,55.15
2022-08-19T16:24:05.485Z,54.63
2022-08-19T16:26:32.911Z,54.78
2022-08-19T16:28:59.828Z,55.20
2022-08-19T16:31:26.527Z,55.43
2022-08-19T16:33:53.171Z,55.95
2022-08-19T16:36:19.847Z,56.20
2022-08-19T16:38:49.409Z,57.09
2022-08-19T16:41:16.126Z,57.96
2022-08-19T16:43:42.754Z,58.12
2022-08-19T16:46:09.677Z,58.38
2022-08-19T16:48:39.159Z,58.97
2022-08-19T16:51:09.411Z,59.21
2022-08-19T16:53:36.500Z,59.40
2022-08-19T16:56:03.286Z,60.15
2022-08-19T16:58:31.323Z,59.56
2022-08-19T17:01:02.053Z,59.24
2022-08-19T17:03:35.967Z,59.72
2022-08-19T17:06:04.033Z,59.82
2022-08-19T17:08:31.635Z,59.59
2022-08-19T17:11:17.014Z,60.17
2022-08-19T17:13:47.771Z,60.38
2022-08-19T17:16:15.373Z,60.54
2022-08-19T17:18:42.019Z,60.84
2022-08-19T17:21:08.665Z,61.62
2022-08-19T17:23:42.925Z,61.28
2022-08-19T17:26:17.228Z,62.54
2022-08-19T17:28:45.413Z,61.17
2022-08-19T17:31:12.337Z,63.06
2022-08-19T17:33:41.455Z,59.56
2022-08-19T17:36:08.918Z,59.17
2022-08-19T17:38:36.084Z,60.09
2022-08-19T17:41:06.066Z,60.85
2022-08-19T17:43:40.062Z,60.19
2022-08-19T17:46:11.190Z,60.04
2022-08-19T17:48:38.964Z,58.74
2022-08-19T17:51:33.794Z,60.16
2022-08-19T17:54:00.620Z,60.31
2022-08-19T17:56:28.791Z,61.49
2022-08-19T17:58:59.750Z,61.55
2022-08-19T18:01:30.738Z,63.11
2022-08-19T18:04:10.618Z,63.72
2022-08-19T18:06:37.256Z,64.54
2022-08-19T18:09:06.970Z,65.06
2022-08-19T18:11:34.026Z,67.21
2022-08-19T18:14:00.715Z,67.60
2022-08-19T18:16:27.351Z,66.83
2022-08-19T18:18:54.721Z,67.32
2022-08-19T18:21:21.925Z,67.10
2022-08-19T18:23:48.878Z,65.86
2022-08-19T18:26:15.807Z,67.10
2022-08-19T18:28:49.370Z,66.85
2022-08-19T18:31:17.211Z,68.26
2022-08-19T18:33:44.827Z,67.68
2022-08-19T18:36:11.556Z,68.99
2022-08-19T18:38:56.951Z,69.03
2022-08-19T18:41:42.256Z,69.77
2022-08-19T18:44:28.533Z,69.20
2022-08-19T18:47:13.825Z,69.95
2022-08-19T18:49:40.783Z,70.57
2022-08-19T18:52:07.557Z,69.97
2022-08-19T18:54:34.509Z,70.53
2022-08-19T18:57:01.367Z,70.21
2022-08-19T18:59:30.280Z,70.81
2022-08-19T19:01:57.776Z,70.75
2022-08-19T19:04:26.865Z,71.03
2022-08-19T19:06:53.578Z,69.40
2022-08-19T19:09:22.512Z,67.44
2022-08-19T19:11:51.453Z,67.73
2022-08-19T19:14:47.560Z,68.83
2022-08-19T19:17:13.837Z,68.81
2022-08-19T19:19:43.034Z,69.25
2022-08-19T19:22:11.683Z,69.92
2022-08-19T19:24:38.644Z,70.05
2022-08-19T19:27:10.172Z,70.37
2022-08-19T19:29:36.929Z,71.13
2022-08-19T19:32:05.121Z,70.12
2022-08-19T19:34:31.787Z,69.04
2022-08-19T19:36:58.542Z,70.23
2022-08-19T19:39:44.925Z,69.70
2022-08-19T19:42:19.970Z,69.49
2022-08-19T19:44:50.696Z,68.67
2022-08-19T19:47:18.907Z,69.08
2022-08-19T19:50:10.748Z,69.11
2022-08-19T19:52:33.620Z,69.77
2022-08-19T19:55:01.590Z,70.12
2022-08-19T19:57:29.438Z,69.97
2022-08-19T19:59:56.522Z,69.45
2022-08-19T20:02:25.302Z,70.66
2022-08-19T20:04:52.231Z,70.75
2022-08-19T20:07:38.926Z,70.17
2022-08-19T20:10:05.896Z,69.97
2022-08-19T20:12:32.521Z,69.98
2022-08-19T20:14:59.164Z,70.52
2022-08-19T20:17:25.817Z,70.82
2022-08-19T20:19:53.576Z,71.17
2022-08-19T20:22:20.209Z,71.91
2022-08-19T20:24:48.033Z,72.00
2022-08-19T20:27:14.634Z,72.59
2022-08-19T20:29:44.360Z,72.03
2022-08-19T20:32:12.489Z,72.45
2022-08-19T20:34:40.189Z,73.04
2022-08-19T20:37:09.699Z,73.87
2022-08-19T20:39:36.935Z,74.48
2022-08-19T20:42:03.804Z,75.27
2022-08-19T20:44:30.480Z,75.60
2022-08-19T20:47:01.728Z,75.49
2022-08-19T20:49:29.741Z,75.58
2022-08-19T20:51:56.711Z,75.73
2022-08-19T20:54:24.106Z,75.37
2022-08-19T20:56:51.107Z,75.03
2022-08-19T20:59:17.795Z,75.19
2022-08-19T21:01:44.438Z,75.85
2022-08-19T21:04:11.037Z,76.16
2022-08-19T21:06:38.625Z,75.86
2022-08-19T21:09:08.903Z,76.07
2022-08-19T21:11:36.129Z,76.26
2022-08-19T21:14:02.961Z,76.69
2022-08-19T21:16:32.549Z,76.32
2022-08-19T21:18:59.235Z,76.03
2022-08-19T21:21:25.865Z,77.46
2022-08-19T21:23:52.984Z,77.53
2022-08-19T21:26:19.569Z,77.00
2022-08-19T21:28:46.344Z,77.04
2022-08-19T21:31:15.308Z,77.24
2022-08-19T21:33:42.003Z,77.06
2022-08-19T21:36:08.950Z,76.78
2022-08-19T21:38:35.825Z,76.71
2022-08-19T21:41:05.717Z,76.63
2022-08-19T21:43:33.162Z,76.54
2022-08-19T21:45:59.804Z,76.17
2022-08-19T21:48:26.442Z,76.28
2022-08-19T21:50:53.112Z,77.71
2022-08-19T21:53:22.997Z,77.39
2022-08-19T21:55:53.076Z,77.88
2022-08-19T21:58:28.301Z,77.56
2022-08-19T22:00:57.734Z,77.75
2022-08-19T22:03:25.857Z,77.43
2022-08-19T22:05:52.646Z,77.29
2022-08-19T22:08:19.327Z,78.10
2022-08-19T22:10:46.534Z,77.99
2022-08-19T22:13:13.346Z,77.90
2022-08-19T22:15:41.093Z,78.28
2022-08-19T22:18:07.736Z,78.31
2022-08-19T22:20:34.790Z,78.51
2022-08-19T22:23:02.715Z,78.61
2022-08-19T22:25:34.521Z,78.37
2022-08-19T22:28:01.928Z,78.91
2022-08-19T22:30:33.134Z,79.28
2022-08-19T22:33:01.414Z,79.49
2022-08-19T22:35:31.393Z,79.39
2022-08-19T22:38:01.157Z,79.54
2022-08-19T22:40:28.512Z,80.64
2022-08-19T22:43:02.217Z,80.70
2022-08-19T22:45:29.120Z,80.31
2022-08-19T22:47:56.024Z,79.80
2022-08-19T22:50:23.060Z,79.49
2022-08-19T22:52:51.727Z,79.78
2022-08-19T22:55:18.981Z,79.64
2022-08-19T22:57:45.598Z,79.54
2022-08-19T23:00:13.616Z,79.83
2022-08-19T23:02:52.280Z,80.09
2022-08-19T23:05:21.928Z,79.60
2022-08-19T23:07:52.581Z,79.56
2022-08-19T23:10:27.143Z,79.12
2022-08-19T23:12:55.115Z,78.82
2022-08-19T23:15:24.345Z,79.02
2022-08-19T23:17:54.321Z,79.55
2022-08-19T23:20:21.259Z,79.51
2022-08-19T23:22:50.960Z,79.29
2022-08-19T23:25:25.741Z,79.13
2022-08-19T23:28:11.045Z,79.23
2022-08-19T23:30:43.766Z,79.04
2022-08-19T23:33:51.017Z,78.94
2022-08-19T23:36:18.871Z,78.83
2022-08-19T23:38:46.568Z,78.77
2022-08-19T23:41:14.442Z,78.99
2022-08-19T23:43:42.006Z,78.69
2022-08-19T23:46:10.711Z,79.00
2022-08-19T23:48:38.999Z,79.49
2022-08-19T23:51:07.820Z,79.22
2022-08-19T23:53:39.489Z,79.60
2022-08-19T23:56:07.593Z,79.20
2022-08-19T23:58:35.284Z,79.02
